El-djazair II — 7TBR — position and weather

sailwx.info

Track history (hours):
 
Tides and Currents Weather Stations Pressure Air Temp Water Temp Dewpoint Dewpoint Depression Visibility Wind Speed Wind Dir Waves Ship Positions

El-djazair II

Last reported at 2014-Jul-25 20:34 UTC. Time now 2014-Jul-25 20:47 UTC.
Position N 38°41' E 001°43'.

Length 146 m; draft 6.3 m.

Type: Passenger vessel. MMSI: 605026190.

Date/timePositionNaut miles runAvg speedWind from/ knotsBaromVisibWave heightAir tempDewpointWater temp
2014-Jul-25 20:34N 38°41' E 001°43'4823.2
2014-Jul-25 18:31N 38°01' E 001°11'6923.4
2014-Jul-25 15:33N 37°02' E 000°24'2323.3
2014-Jul-25 14:33N 36°42' E 000°09'2623.4
2014-Jul-25 13:25N 36°20' W 000°09'61 5.6
2014-Jul-25 02:30N 37°19' W 000°27'2122.2
2014-Jul-25 01:33N 37°40' W 000°25'2222.5
2014-Jul-25 00:33N 38°03' W 000°20'2 0.1
2014-Jul-24 05:33N 38°01' W 000°22'2322.7
2014-Jul-24 04:33N 37°39' W 000°23'2322.6
2014-Jul-24 03:33N 37°16' W 000°27'2323.2
2014-Jul-24 02:33N 36°53' W 000°29'71 6.2
2014-Jul-23 15:13N 35°43' W 000°39'0 0.0
2014-Jul-23 14:33N 35°43' W 000°39'1313.1
2014-Jul-23 13:32N 35°55' W 000°34'2323.4
2014-Jul-23 12:33N 36°16' W 000°22'2323.2
2014-Jul-23 11:34N 36°38' W 000°11'2423.4
2014-Jul-23 10:31N 37°00' E 000°01'2223.1
2014-Jul-23 09:33N 37°20' E 000°11'2222.5
2014-Jul-23 08:33N 37°41' E 000°23'2322.4
2014-Jul-23 07:33N 38°02' E 000°34'2222.4
2014-Jul-23 06:33N 38°23' E 000°44'2322.6
2014-Jul-23 05:32N 38°44' E 000°55'2222.5
2014-Jul-23 04:33N 39°04' E 001°07'2222.4
2014-Jul-23 03:33N 39°23' E 001°23'2322.7
2014-Jul-23 02:33N 39°42' E 001°38'2322.8
2014-Jul-23 01:33N 40°01' E 001°55'2323.0
2014-Jul-23 00:33N 40°19' E 002°13'2323.1
2014-Jul-22 23:33N 40°38' E 002°31'2121.3
2014-Jul-22 22:33N 40°55' E 002°47'2322.9
2014-Jul-22 21:33N 41°14' E 003°05'2622.8
2014-Jul-22 20:25N 41°35' E 003°25'1922.6
2014-Jul-22 19:33N 41°51' E 003°39'9622.6
2014-Jul-22 15:18N 43°08' E 004°58'1722.7
2014-Jul-22 14:33N 43°18' E 005°17'3 2.5
2014-Jul-22 13:16N 43°18' E 005°22'0 0.0
2014-Jul-22 12:28N 43°18' E 005°22'0 0.0
2014-Jul-22 11:31N 43°18' E 005°22'10 9.9
2014-Jul-22 10:33N 43°12' E 005°11'2221.5
2014-Jul-22 09:33N 43°02' E 004°45'2222.1
2014-Jul-22 08:33N 42°51' E 004°19'2522.9
2014-Jul-22 07:29N 42°39' E 003°50'2021.6
2014-Jul-22 06:33N 42°29' E 003°26'7422.1
2014-Jul-22 03:12N 41°15' E 003°23'1522.9
2014-Jul-22 02:32N 40°60' E 003°24'2323.1
2014-Jul-22 01:33N 40°37' E 003°23'2423.5
2014-Jul-22 00:31N 40°13' E 003°24'2222.9
2014-Jul-21 23:33N 39°54' E 003°39'2323.2
2014-Jul-21 22:33N 39°37' E 003°60'199 6.0
2014-Jul-20 13:30N 42°45' E 005°26'2321.6
2014-Jul-20 12:25N 43°08' E 005°19'1110.9
2014-Jul-20 11:26N 43°18' E 005°22'0 0.0
2014-Jul-20 10:32N 43°18' E 005°22'0 0.0
2014-Jul-20 09:32N 43°18' E 005°22'0 0.0
2014-Jul-20 08:32N 43°18' E 005°22'0 0.0
2014-Jul-20 07:32N 43°18' E 005°22'0 0.0
2014-Jul-20 06:26N 43°18' E 005°22'0 0.0
2014-Jul-20 05:32N 43°18' E 005°22'0 0.0
2014-Jul-20 04:26N 43°18' E 005°22'0 0.0
2014-Jul-20 03:32N 43°18' E 005°22'0 0.0
2014-Jul-20 02:32N 43°18' E 005°22'0 0.0
2014-Jul-20 01:32N 43°18' E 005°22'0 0.0
2014-Jul-20 00:32N 43°18' E 005°22'0 0.0
2014-Jul-19 23:32N 43°18' E 005°22'0 0.0
2014-Jul-19 22:11N 43°18' E 005°22'0 0.0
2014-Jul-19 21:26N 43°18' E 005°22'0 0.0
2014-Jul-19 20:32N 43°18' E 005°22'0 0.0
2014-Jul-19 19:14N 43°18' E 005°22'0 0.0
2014-Jul-19 18:32N 43°18' E 005°22'0 0.0
2014-Jul-19 17:32N 43°18' E 005°22'0 0.0
2014-Jul-19 16:14N 43°18' E 005°22'0 0.0
2014-Jul-19 15:26N 43°18' E 005°22'0 0.0
2014-Jul-19 14:32N 43°18' E 005°22'0 0.0
2014-Jul-19 13:32N 43°18' E 005°22'0 0.0
2014-Jul-19 12:26N 43°18' E 005°22'0 0.0
2014-Jul-19 11:32N 43°18' E 005°22'0 0.2
2014-Jul-19 10:33N 43°18' E 005°22'1918.6
2014-Jul-19 09:34N 43°03' E 005°07'2322.8
2014-Jul-19 08:34N 42°45' E 004°47'2322.9
2014-Jul-19 07:34N 42°27' E 004°29'2323.2
2014-Jul-19 06:33N 42°08' E 004°10'2323.3
2014-Jul-19 05:34N 41°49' E 003°52'2323.0
2014-Jul-19 04:33N 41°31' E 003°33'2322.9
2014-Jul-19 03:33N 41°13' E 003°14'2323.2
2014-Jul-19 02:33N 40°55' E 002°56'2323.4
2014-Jul-19 01:33N 40°36' E 002°37'2323.2
2014-Jul-19 00:34N 40°17' E 002°19'2323.2
2014-Jul-18 23:33N 39°58' E 002°01'2323.3
2014-Jul-18 22:33N 39°40' E 001°43'2723.1
2014-Jul-18 21:23N 39°18' E 001°22'4623.3
2014-Jul-18 19:25N 38°39' E 000°53'2923.2
2014-Jul-18 18:12N 38°12' E 000°40'2323.5
2014-Jul-18 17:14N 37°51' E 000°28'110 3.1
2014-Jul-17 05:29N 36°14' W 000°36'2220.1
2014-Jul-17 04:24N 36°36' W 000°35'1718.6
2014-Jul-17 03:30N 36°52' W 000°30'3920.1
2014-Jul-17 01:33N 37°31' W 000°26'4220.6
2014-Jul-16 23:31N 38°13' W 000°22'72 3.5
2014-Jul-16 03:08N 37°01' W 000°29'1221.1
2014-Jul-16 02:33N 36°49' W 000°30'2422.9
2014-Jul-16 01:31N 36°26' W 000°32'  
Track history (hours):
 
Tides and Currents Weather Stations Pressure Air Temp Water Temp Dewpoint Dewpoint Depression Visibility Wind Speed Wind Dir Waves Ship Positions

El-djazair II

Last reported at 2014-Jul-25 20:34 UTC. Time now 2014-Jul-25 20:47 UTC.
Position N 38°41' E 001°43'.

Length 146 m; draft 6.3 m.

Type: Passenger vessel. MMSI: 605026190.

Date/timePositionNaut miles runAvg speedWind from/ knotsBaromVisibWave heightAir tempDewpointWater temp
2014-Jul-25 20:34N 38°41' E 001°43'4823.2
2014-Jul-25 18:31N 38°01' E 001°11'6923.4
2014-Jul-25 15:33N 37°02' E 000°24'2323.3
2014-Jul-25 14:33N 36°42' E 000°09'2623.4
2014-Jul-25 13:25N 36°20' W 000°09'61 5.6
2014-Jul-25 02:30N 37°19' W 000°27'2122.2
2014-Jul-25 01:33N 37°40' W 000°25'2222.5
2014-Jul-25 00:33N 38°03' W 000°20'2 0.1
2014-Jul-24 05:33N 38°01' W 000°22'2322.7
2014-Jul-24 04:33N 37°39' W 000°23'2322.6
2014-Jul-24 03:33N 37°16' W 000°27'2323.2
2014-Jul-24 02:33N 36°53' W 000°29'71 6.2
2014-Jul-23 15:13N 35°43' W 000°39'0 0.0
2014-Jul-23 14:33N 35°43' W 000°39'1313.1
2014-Jul-23 13:32N 35°55' W 000°34'2323.4
2014-Jul-23 12:33N 36°16' W 000°22'2323.2
2014-Jul-23 11:34N 36°38' W 000°11'2423.4
2014-Jul-23 10:31N 37°00' E 000°01'2223.1
2014-Jul-23 09:33N 37°20' E 000°11'2222.5
2014-Jul-23 08:33N 37°41' E 000°23'2322.4
2014-Jul-23 07:33N 38°02' E 000°34'2222.4
2014-Jul-23 06:33N 38°23' E 000°44'2322.6
2014-Jul-23 05:32N 38°44' E 000°55'2222.5
2014-Jul-23 04:33N 39°04' E 001°07'2222.4
2014-Jul-23 03:33N 39°23' E 001°23'2322.7
2014-Jul-23 02:33N 39°42' E 001°38'2322.8
2014-Jul-23 01:33N 40°01' E 001°55'2323.0
2014-Jul-23 00:33N 40°19' E 002°13'2323.1
2014-Jul-22 23:33N 40°38' E 002°31'2121.3
2014-Jul-22 22:33N 40°55' E 002°47'2322.9
2014-Jul-22 21:33N 41°14' E 003°05'2622.8
2014-Jul-22 20:25N 41°35' E 003°25'1922.6
2014-Jul-22 19:33N 41°51' E 003°39'9622.6
2014-Jul-22 15:18N 43°08' E 004°58'1722.7
2014-Jul-22 14:33N 43°18' E 005°17'3 2.5
2014-Jul-22 13:16N 43°18' E 005°22'0 0.0
2014-Jul-22 12:28N 43°18' E 005°22'0 0.0
2014-Jul-22 11:31N 43°18' E 005°22'10 9.9
2014-Jul-22 10:33N 43°12' E 005°11'2221.5
2014-Jul-22 09:33N 43°02' E 004°45'2222.1
2014-Jul-22 08:33N 42°51' E 004°19'2522.9
2014-Jul-22 07:29N 42°39' E 003°50'2021.6
2014-Jul-22 06:33N 42°29' E 003°26'7422.1
2014-Jul-22 03:12N 41°15' E 003°23'1522.9
2014-Jul-22 02:32N 40°60' E 003°24'2323.1
2014-Jul-22 01:33N 40°37' E 003°23'2423.5
2014-Jul-22 00:31N 40°13' E 003°24'2222.9
2014-Jul-21 23:33N 39°54' E 003°39'2323.2
2014-Jul-21 22:33N 39°37' E 003°60'199 6.0
2014-Jul-20 13:30N 42°45' E 005°26'2321.6
2014-Jul-20 12:25N 43°08' E 005°19'1110.9
2014-Jul-20 11:26N 43°18' E 005°22'0 0.0
2014-Jul-20 10:32N 43°18' E 005°22'0 0.0
2014-Jul-20 09:32N 43°18' E 005°22'0 0.0
2014-Jul-20 08:32N 43°18' E 005°22'0 0.0
2014-Jul-20 07:32N 43°18' E 005°22'0 0.0
2014-Jul-20 06:26N 43°18' E 005°22'0 0.0
2014-Jul-20 05:32N 43°18' E 005°22'0 0.0
2014-Jul-20 04:26N 43°18' E 005°22'0 0.0
2014-Jul-20 03:32N 43°18' E 005°22'0 0.0
2014-Jul-20 02:32N 43°18' E 005°22'0 0.0
2014-Jul-20 01:32N 43°18' E 005°22'0 0.0
2014-Jul-20 00:32N 43°18' E 005°22'0 0.0
2014-Jul-19 23:32N 43°18' E 005°22'0 0.0
2014-Jul-19 22:11N 43°18' E 005°22'0 0.0
2014-Jul-19 21:26N 43°18' E 005°22'0 0.0
2014-Jul-19 20:32N 43°18' E 005°22'0 0.0
2014-Jul-19 19:14N 43°18' E 005°22'0 0.0
2014-Jul-19 18:32N 43°18' E 005°22'0 0.0
2014-Jul-19 17:32N 43°18' E 005°22'0 0.0
2014-Jul-19 16:14N 43°18' E 005°22'0 0.0
2014-Jul-19 15:26N 43°18' E 005°22'0 0.0
2014-Jul-19 14:32N 43°18' E 005°22'0 0.0
2014-Jul-19 13:32N 43°18' E 005°22'0 0.0
2014-Jul-19 12:26N 43°18' E 005°22'0 0.0
2014-Jul-19 11:32N 43°18' E 005°22'0 0.2
2014-Jul-19 10:33N 43°18' E 005°22'1918.6
2014-Jul-19 09:34N 43°03' E 005°07'2322.8
2014-Jul-19 08:34N 42°45' E 004°47'2322.9
2014-Jul-19 07:34N 42°27' E 004°29'2323.2
2014-Jul-19 06:33N 42°08' E 004°10'2323.3
2014-Jul-19 05:34N 41°49' E 003°52'2323.0
2014-Jul-19 04:33N 41°31' E 003°33'2322.9
2014-Jul-19 03:33N 41°13' E 003°14'2323.2
2014-Jul-19 02:33N 40°55' E 002°56'2323.4
2014-Jul-19 01:33N 40°36' E 002°37'2323.2
2014-Jul-19 00:34N 40°17' E 002°19'2323.2
2014-Jul-18 23:33N 39°58' E 002°01'2323.3
2014-Jul-18 22:33N 39°40' E 001°43'2723.1
2014-Jul-18 21:23N 39°18' E 001°22'4623.3
2014-Jul-18 19:25N 38°39' E 000°53'2923.2
2014-Jul-18 18:12N 38°12' E 000°40'2323.5
2014-Jul-18 17:14N 37°51' E 000°28'110 3.1
2014-Jul-17 05:29N 36°14' W 000°36'2220.1
2014-Jul-17 04:24N 36°36' W 000°35'1718.6
2014-Jul-17 03:30N 36°52' W 000°30'3920.1
2014-Jul-17 01:33N 37°31' W 000°26'4220.6
2014-Jul-16 23:31N 38°13' W 000°22'72 3.5
2014-Jul-16 03:08N 37°01' W 000°29'1221.1
2014-Jul-16 02:33N 36°49' W 000°30'2422.9
2014-Jul-16 01:31N 36°26' W 000°32'  

Dump ship's entire track history